sensor_id;sensor_type;location;lat;lon;timestamp;noise_LAeq;noise_LA_min;noise_LA_max;noise_LA01;noise_LA95
57092;Laerm;42968;52.094;4.328;2024-02-23T00:01:35;70.62;45.23;90.77;;
57092;Laerm;42968;52.094;4.328;2024-02-23T00:04:00;66.85;45.77;80.49;;
57092;Laerm;42968;52.094;4.328;2024-02-23T00:06:27;68.77;44.90;89.75;;
57092;Laerm;42968;52.094;4.328;2024-02-23T00:08:55;70.01;46.05;87.07;;
57092;Laerm;42968;52.094;4.328;2024-02-23T00:11:21;68.71;45.66;91.47;;
57092;Laerm;42968;52.094;4.328;2024-02-23T00:13:46;71.04;46.07;95.38;;
57092;Laerm;42968;52.094;4.328;2024-02-23T00:16:11;57.90;42.59;76.37;;
57092;Laerm;42968;52.094;4.328;2024-02-23T00:18:36;63.48;43.77;81.68;;
57092;Laerm;42968;52.094;4.328;2024-02-23T00:21:02;68.88;45.69;90.82;;
57092;Laerm;42968;52.094;4.328;2024-02-23T00:23:27;68.08;46.23;86.73;;
57092;Laerm;42968;52.094;4.328;2024-02-23T00:25:53;68.87;45.17;88.91;;
57092;Laerm;42968;52.094;4.328;2024-02-23T00:28:19;68.94;47.98;89.81;;
57092;Laerm;42968;52.094;4.328;2024-02-23T00:30:44;71.45;45.20;94.98;;
57092;Laerm;42968;52.094;4.328;2024-02-23T00:33:09;63.19;45.80;85.06;;
57092;Laerm;42968;52.094;4.328;2024-02-23T00:35:35;66.42;45.23;89.21;;
57092;Laerm;42968;52.094;4.328;2024-02-23T00:38:00;69.13;44.43;85.30;;
57092;Laerm;42968;52.094;4.328;2024-02-23T00:40:26;66.87;48.74;84.29;;
57092;Laerm;42968;52.094;4.328;2024-02-23T00:42:51;71.55;47.34;89.22;;
57092;Laerm;42968;52.094;4.328;2024-02-23T00:45:17;69.69;44.87;91.43;;
57092;Laerm;42968;52.094;4.328;2024-02-23T00:47:42;69.03;45.72;89.45;;
57092;Laerm;42968;52.094;4.328;2024-02-23T00:50:08;66.16;48.64;88.28;;
57092;Laerm;42968;52.094;4.328;2024-02-23T00:52:33;66.94;43.94;86.63;;
57092;Laerm;42968;52.094;4.328;2024-02-23T00:54:59;65.26;43.19;83.73;;
57092;Laerm;42968;52.094;4.328;2024-02-23T00:57:24;70.65;44.73;94.47;;
57092;Laerm;42968;52.094;4.328;2024-02-23T00:59:54;67.92;45.23;84.96;;
57092;Laerm;42968;52.094;4.328;2024-02-23T01:02:20;61.41;44.39;82.23;;
57092;Laerm;42968;52.094;4.328;2024-02-23T01:04:45;65.53;44.47;83.89;;
57092;Laerm;42968;52.094;4.328;2024-02-23T01:07:10;68.25;44.23;89.44;;
57092;Laerm;42968;52.094;4.328;2024-02-23T01:09:35;63.96;44.47;83.19;;
57092;Laerm;42968;52.094;4.328;2024-02-23T01:12:01;66.63;45.04;86.72;;
57092;Laerm;42968;52.094;4.328;2024-02-23T01:14:26;60.33;42.98;81.12;;
57092;Laerm;42968;52.094;4.328;2024-02-23T01:16:51;66.24;42.35;81.97;;
57092;Laerm;42968;52.094;4.328;2024-02-23T01:19:16;69.91;43.58;89.45;;
57092;Laerm;42968;52.094;4.328;2024-02-23T01:21:43;64.35;44.47;84.22;;
57092;Laerm;42968;52.094;4.328;2024-02-23T01:24:08;67.29;43.14;87.22;;
57092;Laerm;42968;52.094;4.328;2024-02-23T01:26:33;68.57;47.86;92.98;;
57092;Laerm;42968;52.094;4.328;2024-02-23T01:28:59;65.85;44.35;90.77;;
57092;Laerm;42968;52.094;4.328;2024-02-23T01:31:24;68.79;44.97;87.59;;
57092;Laerm;42968;52.094;4.328;2024-02-23T01:33:49;68.65;44.54;92.17;;
57092;Laerm;42968;52.094;4.328;2024-02-23T01:36:15;67.17;42.82;85.54;;
57092;Laerm;42968;52.094;4.328;2024-02-23T01:38:40;64.12;44.03;82.10;;
57092;Laerm;42968;52.094;4.328;2024-02-23T01:41:07;67.57;47.36;81.58;;
57092;Laerm;42968;52.094;4.328;2024-02-23T01:43:33;70.19;42.35;89.81;;
57092;Laerm;42968;52.094;4.328;2024-02-23T01:45:58;63.39;42.41;82.55;;
57092;Laerm;42968;52.094;4.328;2024-02-23T01:48:23;64.84;42.88;86.60;;
57092;Laerm;42968;52.094;4.328;2024-02-23T01:50:49;58.11;40.62;80.21;;
57092;Laerm;42968;52.094;4.328;2024-02-23T01:53:14;60.11;41.46;80.48;;
57092;Laerm;42968;52.094;4.328;2024-02-23T01:55:40;67.56;43.39;84.33;;
57092;Laerm;42968;52.094;4.328;2024-02-23T01:58:06;58.72;41.30;85.31;;
57092;Laerm;42968;52.094;4.328;2024-02-23T02:00:31;66.11;41.38;80.98;;
57092;Laerm;42968;52.094;4.328;2024-02-23T02:02:57;65.99;42.53;85.82;;
57092;Laerm;42968;52.094;4.328;2024-02-23T02:05:22;54.34;41.68;73.15;;
57092;Laerm;42968;52.094;4.328;2024-02-23T02:07:49;65.63;41.22;86.05;;
57092;Laerm;42968;52.094;4.328;2024-02-23T02:10:15;64.97;42.03;83.83;;
57092;Laerm;42968;52.094;4.328;2024-02-23T02:12:42;66.49;42.76;81.31;;
57092;Laerm;42968;52.094;4.328;2024-02-23T02:15:07;63.70;41.61;85.88;;
57092;Laerm;42968;52.094;4.328;2024-02-23T02:17:32;61.75;41.14;78.19;;
57092;Laerm;42968;52.094;4.328;2024-02-23T02:19:58;55.79;40.98;76.72;;
57092;Laerm;42968;52.094;4.328;2024-02-23T02:22:24;63.47;41.53;82.10;;
57092;Laerm;42968;52.094;4.328;2024-02-23T02:24:49;60.18;41.53;76.71;;
57092;Laerm;42968;52.094;4.328;2024-02-23T02:27:14;61.38;41.53;75.86;;
57092;Laerm;42968;52.094;4.328;2024-02-23T02:29:40;48.30;40.89;66.38;;
57092;Laerm;42968;52.094;4.328;2024-02-23T02:32:05;63.29;41.82;77.69;;
57092;Laerm;42968;52.094;4.328;2024-02-23T02:34:31;61.32;42.41;77.34;;
57092;Laerm;42968;52.094;4.328;2024-02-23T02:36:56;67.63;43.90;81.16;;
57092;Laerm;42968;52.094;4.328;2024-02-23T02:39:21;54.32;41.22;71.25;;
57092;Laerm;42968;52.094;4.328;2024-02-23T02:41:50;53.93;42.03;74.69;;
57092;Laerm;42968;52.094;4.328;2024-02-23T02:44:15;54.25;42.09;74.36;;
57092;Laerm;42968;52.094;4.328;2024-02-23T02:46:41;63.92;42.65;85.55;;
57092;Laerm;42968;52.094;4.328;2024-02-23T02:49:06;65.76;41.68;85.70;;
57092;Laerm;42968;52.094;4.328;2024-02-23T02:51:31;61.19;42.09;81.90;;
57092;Laerm;42968;52.094;4.328;2024-02-23T02:53:56;57.71;41.30;72.47;;
57092;Laerm;42968;52.094;4.328;2024-02-23T02:56:22;57.22;40.80;77.05;;
57092;Laerm;42968;52.094;4.328;2024-02-23T02:58:47;55.22;40.71;75.17;;
57092;Laerm;42968;52.094;4.328;2024-02-23T03:01:12;59.21;41.53;75.05;;
57092;Laerm;42968;52.094;4.328;2024-02-23T03:03:37;50.72;41.33;69.43;;
57092;Laerm;42968;52.094;4.328;2024-02-23T03:06:03;56.36;42.22;72.39;;
57092;Laerm;42968;52.094;4.328;2024-02-23T03:08:28;60.04;41.38;75.98;;
57092;Laerm;42968;52.094;4.328;2024-02-23T03:10:53;59.74;42.03;76.12;;
57092;Laerm;42968;52.094;4.328;2024-02-23T03:13:19;54.86;41.38;73.78;;
57092;Laerm;42968;52.094;4.328;2024-02-23T03:15:44;74.51;43.29;94.74;;
57092;Laerm;42968;52.094;4.328;2024-02-23T03:18:09;65.62;43.76;82.17;;
57092;Laerm;42968;52.094;4.328;2024-02-23T03:20:35;62.41;41.30;78.88;;
57092;Laerm;42968;52.094;4.328;2024-02-23T03:23:00;59.22;40.13;74.83;;
57092;Laerm;42968;52.094;4.328;2024-02-23T03:25:28;56.97;41.14;79.20;;
57092;Laerm;42968;52.094;4.328;2024-02-23T03:27:53;58.36;41.53;74.05;;
57092;Laerm;42968;52.094;4.328;2024-02-23T03:30:19;66.14;41.61;83.13;;
57092;Laerm;42968;52.094;4.328;2024-02-23T03:32:44;59.67;42.22;74.27;;
57092;Laerm;42968;52.094;4.328;2024-02-23T03:35:11;57.52;41.38;73.45;;
57092;Laerm;42968;52.094;4.328;2024-02-23T03:37:36;64.12;41.46;81.01;;
57092;Laerm;42968;52.094;4.328;2024-02-23T03:40:02;58.50;41.53;74.02;;
57092;Laerm;42968;52.094;4.328;2024-02-23T03:42:29;66.42;42.24;80.68;;
57092;Laerm;42968;52.094;4.328;2024-02-23T03:44:55;65.19;42.41;78.72;;
57092;Laerm;42968;52.094;4.328;2024-02-23T03:47:20;50.06;41.61;69.24;;
57092;Laerm;42968;52.094;4.328;2024-02-23T03:49:45;64.16;42.41;78.46;;
57092;Laerm;42968;52.094;4.328;2024-02-23T03:52:11;61.59;42.93;78.44;;
57092;Laerm;42968;52.094;4.328;2024-02-23T03:54:37;62.67;42.41;81.35;;
57092;Laerm;42968;52.094;4.328;2024-02-23T03:57:02;65.57;42.98;82.72;;
57092;Laerm;42968;52.094;4.328;2024-02-23T03:59:28;62.31;42.16;76.16;;
57092;Laerm;42968;52.094;4.328;2024-02-23T04:01:53;65.34;41.82;79.87;;
57092;Laerm;42968;52.094;4.328;2024-02-23T04:04:19;62.01;44.23;74.46;;
57092;Laerm;42968;52.094;4.328;2024-02-23T04:06:44;66.58;45.11;80.40;;
57092;Laerm;42968;52.094;4.328;2024-02-23T04:09:09;69.88;44.94;83.33;;
57092;Laerm;42968;52.094;4.328;2024-02-23T04:11:34;69.38;44.54;86.88;;
57092;Laerm;42968;52.094;4.328;2024-02-23T04:14:00;61.63;43.99;77.65;;
57092;Laerm;42968;52.094;4.328;2024-02-23T04:16:25;67.51;44.31;82.61;;
57092;Laerm;42968;52.094;4.328;2024-02-23T04:18:51;67.77;47.68;80.51;;
57092;Laerm;42968;52.094;4.328;2024-02-23T04:21:16;67.56;45.75;81.97;;
57092;Laerm;42968;52.094;4.328;2024-02-23T04:23:42;71.34;46.93;84.83;;
57092;Laerm;42968;52.094;4.328;2024-02-23T04:26:08;66.31;43.89;80.15;;
57092;Laerm;42968;52.094;4.328;2024-02-23T04:28:33;69.87;45.66;84.37;;
57092;Laerm;42968;52.094;4.328;2024-02-23T04:30:59;71.36;51.13;87.49;;
57092;Laerm;42968;52.094;4.328;2024-02-23T04:33:24;69.79;45.33;87.57;;
57092;Laerm;42968;52.094;4.328;2024-02-23T04:35:49;70.28;49.62;85.61;;
57092;Laerm;42968;52.094;4.328;2024-02-23T04:38:15;68.57;46.15;85.78;;
57092;Laerm;42968;52.094;4.328;2024-02-23T04:40:40;71.52;52.27;95.48;;
57092;Laerm;42968;52.094;4.328;2024-02-23T04:43:05;74.53;56.79;88.51;;
57092;Laerm;42968;52.094;4.328;2024-02-23T04:45:30;74.40;57.21;86.54;;
57092;Laerm;42968;52.094;4.328;2024-02-23T04:47:56;74.48;49.85;86.18;;
57092;Laerm;42968;52.094;4.328;2024-02-23T04:50:21;71.95;51.62;83.98;;
57092;Laerm;42968;52.094;4.328;2024-02-23T04:52:47;75.32;52.17;86.02;;
57092;Laerm;42968;52.094;4.328;2024-02-23T04:55:12;76.04;55.67;88.82;;
57092;Laerm;42968;52.094;4.328;2024-02-23T04:57:38;75.34;54.12;88.18;;
57092;Laerm;42968;52.094;4.328;2024-02-23T05:00:04;74.21;53.44;89.07;;
57092;Laerm;42968;52.094;4.328;2024-02-23T05:02:29;67.50;49.03;82.11;;
57092;Laerm;42968;52.094;4.328;2024-02-23T05:05:00;73.94;56.37;86.01;;
57092;Laerm;42968;52.094;4.328;2024-02-23T05:07:25;72.99;53.57;88.86;;
57092;Laerm;42968;52.094;4.328;2024-02-23T05:09:50;75.18;51.80;88.80;;
57092;Laerm;42968;52.094;4.328;2024-02-23T05:12:15;75.74;52.70;90.46;;
57092;Laerm;42968;52.094;4.328;2024-02-23T05:14:40;75.79;49.50;88.59;;
57092;Laerm;42968;52.094;4.328;2024-02-23T05:17:06;72.81;50.31;84.44;;
57092;Laerm;42968;52.094;4.328;2024-02-23T05:19:31;77.88;60.13;89.57;;
57092;Laerm;42968;52.094;4.328;2024-02-23T05:21:56;76.35;56.43;87.49;;
57092;Laerm;42968;52.094;4.328;2024-02-23T05:24:21;76.51;55.30;85.88;;
57092;Laerm;42968;52.094;4.328;2024-02-23T05:26:47;77.86;57.71;88.13;;
57092;Laerm;42968;52.094;4.328;2024-02-23T05:29:12;76.27;59.01;87.13;;
57092;Laerm;42968;52.094;4.328;2024-02-23T05:34:11;75.49;54.76;85.40;;
57092;Laerm;42968;52.094;4.328;2024-02-23T05:36:36;75.83;56.96;84.68;;
57092;Laerm;42968;52.094;4.328;2024-02-23T05:39:01;76.39;52.59;85.47;;
57092;Laerm;42968;52.094;4.328;2024-02-23T05:41:27;75.27;58.24;82.80;;
57092;Laerm;42968;52.094;4.328;2024-02-23T05:43:52;76.46;54.78;85.97;;
57092;Laerm;42968;52.094;4.328;2024-02-23T05:46:18;78.21;63.14;89.43;;
57092;Laerm;42968;52.094;4.328;2024-02-23T05:48:44;74.66;57.65;85.66;;
57092;Laerm;42968;52.094;4.328;2024-02-23T05:51:09;76.88;62.73;89.74;;
57092;Laerm;42968;52.094;4.328;2024-02-23T05:53:35;75.16;52.42;84.99;;
57092;Laerm;42968;52.094;4.328;2024-02-23T05:56:00;78.62;54.31;91.58;;
57092;Laerm;42968;52.094;4.328;2024-02-23T05:58:25;78.89;54.42;92.21;;
57092;Laerm;42968;52.094;4.328;2024-02-23T06:00:51;76.93;55.95;86.97;;
57092;Laerm;42968;52.094;4.328;2024-02-23T06:03:16;74.64;57.30;85.87;;
57092;Laerm;42968;52.094;4.328;2024-02-23T06:05:43;75.33;53.92;84.02;;
57092;Laerm;42968;52.094;4.328;2024-02-23T06:08:08;73.78;54.73;83.15;;
57092;Laerm;42968;52.094;4.328;2024-02-23T06:10:33;75.54;56.56;86.97;;
57092;Laerm;42968;52.094;4.328;2024-02-23T06:12:59;75.91;56.02;89.56;;
57092;Laerm;42968;52.094;4.328;2024-02-23T06:15:24;74.97;53.88;87.60;;
57092;Laerm;42968;52.094;4.328;2024-02-23T06:17:49;77.15;55.52;84.91;;
57092;Laerm;42968;52.094;4.328;2024-02-23T06:20:15;74.46;57.86;84.36;;
57092;Laerm;42968;52.094;4.328;2024-02-23T06:22:41;74.77;56.66;84.20;;
57092;Laerm;42968;52.094;4.328;2024-02-23T06:25:06;74.74;55.99;83.21;;
57092;Laerm;42968;52.094;4.328;2024-02-23T06:27:31;75.09;60.15;84.94;;
57092;Laerm;42968;52.094;4.328;2024-02-23T06:29:56;76.19;55.50;103.78;;
57092;Laerm;42968;52.094;4.328;2024-02-23T06:32:22;75.83;60.62;86.85;;
57092;Laerm;42968;52.094;4.328;2024-02-23T06:34:47;76.84;58.72;89.66;;
57092;Laerm;42968;52.094;4.328;2024-02-23T06:37:12;76.72;60.10;88.37;;
57092;Laerm;42968;52.094;4.328;2024-02-23T06:39:38;77.37;54.79;88.14;;
57092;Laerm;42968;52.094;4.328;2024-02-23T06:42:07;78.32;64.14;88.73;;
57092;Laerm;42968;52.094;4.328;2024-02-23T06:44:32;75.54;57.03;85.10;;
57092;Laerm;42968;52.094;4.328;2024-02-23T06:46:57;76.49;57.10;84.38;;
57092;Laerm;42968;52.094;4.328;2024-02-23T06:49:23;75.31;57.43;86.08;;
57092;Laerm;42968;52.094;4.328;2024-02-23T06:51:48;76.48;56.45;86.37;;
57092;Laerm;42968;52.094;4.328;2024-02-23T06:54:13;77.24;56.82;85.04;;
57092;Laerm;42968;52.094;4.328;2024-02-23T06:56:39;76.67;60.02;86.56;;
57092;Laerm;42968;52.094;4.328;2024-02-23T06:59:04;74.95;53.79;83.96;;
57092;Laerm;42968;52.094;4.328;2024-02-23T07:01:30;77.00;62.82;87.05;;
57092;Laerm;42968;52.094;4.328;2024-02-23T07:03:56;75.80;56.83;85.03;;
57092;Laerm;42968;52.094;4.328;2024-02-23T07:06:21;76.53;62.32;85.27;;
57092;Laerm;42968;52.094;4.328;2024-02-23T07:08:46;75.55;55.98;85.28;;
57092;Laerm;42968;52.094;4.328;2024-02-23T07:11:11;76.05;58.22;86.00;;
57092;Laerm;42968;52.094;4.328;2024-02-23T07:13:37;76.27;56.97;84.59;;
57092;Laerm;42968;52.094;4.328;2024-02-23T07:16:02;77.16;59.03;84.91;;
57092;Laerm;42968;52.094;4.328;2024-02-23T07:18:30;77.26;57.43;85.91;;
57092;Laerm;42968;52.094;4.328;2024-02-23T07:20:55;77.27;61.50;94.04;;
57092;Laerm;42968;52.094;4.328;2024-02-23T07:23:21;76.67;55.78;82.33;;
57092;Laerm;42968;52.094;4.328;2024-02-23T07:25:48;77.91;56.05;87.44;;
57092;Laerm;42968;52.094;4.328;2024-02-23T07:28:16;76.41;60.07;83.98;;
57092;Laerm;42968;52.094;4.328;2024-02-23T07:30:43;79.70;65.36;87.69;;
57092;Laerm;42968;52.094;4.328;2024-02-23T07:33:08;79.52;61.01;89.04;;
57092;Laerm;42968;52.094;4.328;2024-02-23T07:35:33;79.01;63.09;87.68;;
57092;Laerm;42968;52.094;4.328;2024-02-23T07:37:59;79.45;58.56;89.88;;
57092;Laerm;42968;52.094;4.328;2024-02-23T07:40:24;80.90;65.78;90.19;;
57092;Laerm;42968;52.094;4.328;2024-02-23T07:42:50;81.99;63.39;94.33;;
57092;Laerm;42968;52.094;4.328;2024-02-23T07:45:15;80.84;60.95;90.19;;
57092;Laerm;42968;52.094;4.328;2024-02-23T07:47:40;81.51;63.33;97.42;;
57092;Laerm;42968;52.094;4.328;2024-02-23T07:50:05;80.63;68.40;89.22;;
57092;Laerm;42968;52.094;4.328;2024-02-23T07:52:31;80.29;63.54;99.35;;
57092;Laerm;42968;52.094;4.328;2024-02-23T07:54:56;81.04;62.46;90.01;;
57092;Laerm;42968;52.094;4.328;2024-02-23T07:57:21;79.42;63.00;87.75;;
57092;Laerm;42968;52.094;4.328;2024-02-23T07:59:47;78.71;58.71;91.61;;
57092;Laerm;42968;52.094;4.328;2024-02-23T08:02:12;79.35;66.33;88.79;;
57092;Laerm;42968;52.094;4.328;2024-02-23T08:04:38;80.78;57.04;96.96;;
57092;Laerm;42968;52.094;4.328;2024-02-23T08:07:03;79.40;64.19;90.95;;
57092;Laerm;42968;52.094;4.328;2024-02-23T08:09:29;77.98;58.96;87.22;;
57092;Laerm;42968;52.094;4.328;2024-02-23T08:11:54;79.96;60.95;90.24;;
57092;Laerm;42968;52.094;4.328;2024-02-23T08:14:20;79.64;61.69;89.55;;
57092;Laerm;42968;52.094;4.328;2024-02-23T08:16:45;79.19;60.21;87.02;;
57092;Laerm;42968;52.094;4.328;2024-02-23T08:19:10;79.30;64.09;96.49;;
57092;Laerm;42968;52.094;4.328;2024-02-23T08:21:36;78.94;65.37;86.55;;
57092;Laerm;42968;52.094;4.328;2024-02-23T08:24:01;79.05;62.81;87.12;;
57092;Laerm;42968;52.094;4.328;2024-02-23T08:26:27;79.07;67.34;93.88;;
57092;Laerm;42968;52.094;4.328;2024-02-23T08:28:53;80.80;58.38;88.53;;
57092;Laerm;42968;52.094;4.328;2024-02-23T08:31:18;79.49;57.75;96.57;;
57092;Laerm;42968;52.094;4.328;2024-02-23T08:33:43;80.09;62.37;95.29;;
57092;Laerm;42968;52.094;4.328;2024-02-23T08:36:09;79.25;60.86;94.36;;
57092;Laerm;42968;52.094;4.328;2024-02-23T08:38:35;80.51;61.12;88.17;;
57092;Laerm;42968;52.094;4.328;2024-02-23T08:41:01;79.58;60.49;90.11;;
57092;Laerm;42968;52.094;4.328;2024-02-23T08:43:27;82.02;67.48;95.84;;
57092;Laerm;42968;52.094;4.328;2024-02-23T08:45:52;80.11;62.76;92.15;;
57092;Laerm;42968;52.094;4.328;2024-02-23T08:48:18;80.11;65.18;93.04;;
57092;Laerm;42968;52.094;4.328;2024-02-23T08:50:44;78.65;60.82;87.90;;
57092;Laerm;42968;52.094;4.328;2024-02-23T08:53:09;77.94;59.04;87.26;;
57092;Laerm;42968;52.094;4.328;2024-02-23T08:55:34;79.83;62.99;88.59;;
57092;Laerm;42968;52.094;4.328;2024-02-23T08:58:00;77.48;57.11;86.00;;
57092;Laerm;42968;52.094;4.328;2024-02-23T09:00:25;79.54;63.08;90.66;;
57092;Laerm;42968;52.094;4.328;2024-02-23T09:02:50;77.36;59.03;84.64;;
57092;Laerm;42968;52.094;4.328;2024-02-23T09:05:16;79.72;58.83;88.38;;
57092;Laerm;42968;52.094;4.328;2024-02-23T09:07:41;77.53;58.82;86.47;;
57092;Laerm;42968;52.094;4.328;2024-02-23T09:10:07;78.11;59.63;85.97;;
57092;Laerm;42968;52.094;4.328;2024-02-23T09:12:32;77.71;58.92;86.80;;
57092;Laerm;42968;52.094;4.328;2024-02-23T09:15:06;78.33;59.02;86.47;;
57092;Laerm;42968;52.094;4.328;2024-02-23T09:17:32;77.73;62.35;86.72;;
57092;Laerm;42968;52.094;4.328;2024-02-23T09:19:58;79.54;68.67;88.02;;
57092;Laerm;42968;52.094;4.328;2024-02-23T09:22:23;77.74;60.57;86.71;;
57092;Laerm;42968;52.094;4.328;2024-02-23T09:24:48;78.13;57.82;89.10;;
57092;Laerm;42968;52.094;4.328;2024-02-23T09:27:14;78.27;63.73;88.14;;
57092;Laerm;42968;52.094;4.328;2024-02-23T09:29:40;78.99;63.53;90.77;;
57092;Laerm;42968;52.094;4.328;2024-02-23T09:32:05;77.35;60.13;88.39;;
57092;Laerm;42968;52.094;4.328;2024-02-23T09:34:31;78.14;57.26;85.92;;
57092;Laerm;42968;52.094;4.328;2024-02-23T09:36:56;79.09;62.14;88.79;;
57092;Laerm;42968;52.094;4.328;2024-02-23T09:39:21;78.09;62.29;83.43;;
57092;Laerm;42968;52.094;4.328;2024-02-23T09:41:49;78.92;62.24;92.31;;
57092;Laerm;42968;52.094;4.328;2024-02-23T09:44:15;77.26;59.88;91.05;;
57092;Laerm;42968;52.094;4.328;2024-02-23T09:46:42;77.57;60.87;86.25;;
57092;Laerm;42968;52.094;4.328;2024-02-23T09:49:08;78.25;64.52;89.33;;
57092;Laerm;42968;52.094;4.328;2024-02-23T09:51:36;77.93;61.05;87.93;;
57092;Laerm;42968;52.094;4.328;2024-02-23T09:54:01;78.17;60.11;91.56;;
57092;Laerm;42968;52.094;4.328;2024-02-23T09:56:28;78.31;62.94;85.97;;
57092;Laerm;42968;52.094;4.328;2024-02-23T09:58:55;77.57;61.65;91.44;;
57092;Laerm;42968;52.094;4.328;2024-02-23T10:01:24;77.35;58.69;87.34;;
57092;Laerm;42968;52.094;4.328;2024-02-23T10:03:52;75.63;61.57;84.38;;
57092;Laerm;42968;52.094;4.328;2024-02-23T10:06:17;76.95;63.88;85.70;;
57092;Laerm;42968;52.094;4.328;2024-02-23T10:08:43;77.91;62.99;89.06;;
57092;Laerm;42968;52.094;4.328;2024-02-23T10:11:08;76.51;63.98;85.29;;
57092;Laerm;42968;52.094;4.328;2024-02-23T10:13:33;78.18;61.08;88.06;;
57092;Laerm;42968;52.094;4.328;2024-02-23T10:15:59;77.19;60.69;85.38;;
57092;Laerm;42968;52.094;4.328;2024-02-23T10:18:24;78.29;64.80;86.08;;
57092;Laerm;42968;52.094;4.328;2024-02-23T10:20:50;77.03;57.68;91.39;;
57092;Laerm;42968;52.094;4.328;2024-02-23T10:23:18;76.40;58.48;84.91;;
57092;Laerm;42968;52.094;4.328;2024-02-23T10:25:45;77.88;62.10;88.99;;
57092;Laerm;42968;52.094;4.328;2024-02-23T10:28:10;76.71;57.74;87.07;;
57092;Laerm;42968;52.094;4.328;2024-02-23T10:30:36;77.89;64.66;85.20;;
57092;Laerm;42968;52.094;4.328;2024-02-23T10:33:04;76.47;64.94;89.55;;
57092;Laerm;42968;52.094;4.328;2024-02-23T10:35:30;91.73;66.72;114.65;;
57092;Laerm;42968;52.094;4.328;2024-02-23T10:37:56;77.57;61.73;87.25;;
57092;Laerm;42968;52.094;4.328;2024-02-23T10:40:23;77.11;61.91;91.37;;
57092;Laerm;42968;52.094;4.328;2024-02-23T10:42:51;75.93;61.80;84.03;;
57092;Laerm;42968;52.094;4.328;2024-02-23T10:45:20;75.48;61.81;86.48;;
57092;Laerm;42968;52.094;4.328;2024-02-23T10:47:50;77.58;60.67;88.32;;
57092;Laerm;42968;52.094;4.328;2024-02-23T10:50:15;75.35;57.07;83.51;;
57092;Laerm;42968;52.094;4.328;2024-02-23T10:52:43;77.76;57.88;89.18;;
57092;Laerm;42968;52.094;4.328;2024-02-23T10:55:08;77.21;59.05;87.60;;
57092;Laerm;42968;52.094;4.328;2024-02-23T10:57:34;77.86;55.57;86.33;;
57092;Laerm;42968;52.094;4.328;2024-02-23T10:59:59;76.85;64.84;88.89;;
57092;Laerm;42968;52.094;4.328;2024-02-23T11:02:26;75.35;56.99;85.85;;
57092;Laerm;42968;52.094;4.328;2024-02-23T11:04:54;77.13;63.36;86.90;;
57092;Laerm;42968;52.094;4.328;2024-02-23T11:07:20;77.38;65.12;88.05;;
57092;Laerm;42968;52.094;4.328;2024-02-23T11:09:49;75.89;55.30;84.17;;
57092;Laerm;42968;52.094;4.328;2024-02-23T11:12:22;76.07;60.04;83.65;;
57092;Laerm;42968;52.094;4.328;2024-02-23T11:14:48;77.01;58.92;87.08;;
57092;Laerm;42968;52.094;4.328;2024-02-23T11:17:17;75.84;57.56;85.28;;
57092;Laerm;42968;52.094;4.328;2024-02-23T11:19:43;76.71;57.74;84.98;;
57092;Laerm;42968;52.094;4.328;2024-02-23T11:22:10;75.54;56.08;84.65;;
57092;Laerm;42968;52.094;4.328;2024-02-23T11:24:42;77.03;60.76;85.08;;
57092;Laerm;42968;52.094;4.328;2024-02-23T11:27:12;77.29;56.06;86.99;;
57092;Laerm;42968;52.094;4.328;2024-02-23T11:29:38;76.73;53.12;83.89;;
57092;Laerm;42968;52.094;4.328;2024-02-23T11:32:12;76.21;54.57;85.02;;
57092;Laerm;42968;52.094;4.328;2024-02-23T11:34:37;76.01;56.37;84.08;;
57092;Laerm;42968;52.094;4.328;2024-02-23T11:37:10;76.23;55.45;88.61;;
57092;Laerm;42968;52.094;4.328;2024-02-23T11:39:38;77.24;57.25;89.31;;
57092;Laerm;42968;52.094;4.328;2024-02-23T11:42:05;75.54;62.45;83.33;;
57092;Laerm;42968;52.094;4.328;2024-02-23T11:44:31;75.95;60.47;83.48;;
57092;Laerm;42968;52.094;4.328;2024-02-23T11:46:56;75.91;58.09;84.36;;
57092;Laerm;42968;52.094;4.328;2024-02-23T11:49:32;76.24;60.42;83.14;;
57092;Laerm;42968;52.094;4.328;2024-02-23T11:51:59;76.16;62.41;82.44;;
57092;Laerm;42968;52.094;4.328;2024-02-23T11:54:24;76.14;56.45;84.21;;
57092;Laerm;42968;52.094;4.328;2024-02-23T11:56:49;84.81;63.88;104.04;;
57092;Laerm;42968;52.094;4.328;2024-02-23T11:59:17;76.33;60.78;85.19;;
57092;Laerm;42968;52.094;4.328;2024-02-23T12:01:42;75.40;62.63;87.47;;
57092;Laerm;42968;52.094;4.328;2024-02-23T12:04:08;76.15;55.48;88.05;;
57092;Laerm;42968;52.094;4.328;2024-02-23T12:06:33;75.91;55.37;87.28;;
57092;Laerm;42968;52.094;4.328;2024-02-23T12:08:59;74.56;56.12;83.40;;
57092;Laerm;42968;52.094;4.328;2024-02-23T12:11:24;75.41;59.50;89.72;;
57092;Laerm;42968;52.094;4.328;2024-02-23T12:13:49;76.62;62.39;85.07;;
57092;Laerm;42968;52.094;4.328;2024-02-23T12:16:16;75.31;60.05;86.41;;
57092;Laerm;42968;52.094;4.328;2024-02-23T12:18:41;76.02;62.00;85.55;;
57092;Laerm;42968;52.094;4.328;2024-02-23T12:21:09;75.87;54.22;82.34;;
57092;Laerm;42968;52.094;4.328;2024-02-23T12:23:38;76.97;62.44;86.74;;
57092;Laerm;42968;52.094;4.328;2024-02-23T12:26:04;77.37;58.63;89.53;;
57092;Laerm;42968;52.094;4.328;2024-02-23T12:28:29;74.75;58.99;83.84;;
57092;Laerm;42968;52.094;4.328;2024-02-23T12:31:01;75.03;62.42;81.58;;
57092;Laerm;42968;52.094;4.328;2024-02-23T12:33:27;76.47;57.96;83.62;;
57092;Laerm;42968;52.094;4.328;2024-02-23T12:35:53;76.91;54.04;88.55;;
57092;Laerm;42968;52.094;4.328;2024-02-23T12:38:19;76.10;58.41;83.64;;
57092;Laerm;42968;52.094;4.328;2024-02-23T12:40:44;75.35;57.97;88.35;;
57092;Laerm;42968;52.094;4.328;2024-02-23T12:43:09;75.06;61.86;85.41;;
57092;Laerm;42968;52.094;4.328;2024-02-23T12:45:34;75.40;56.78;87.28;;
57092;Laerm;42968;52.094;4.328;2024-02-23T12:48:03;77.49;61.46;88.84;;
57092;Laerm;42968;52.094;4.328;2024-02-23T12:50:31;76.41;62.57;94.96;;
57092;Laerm;42968;52.094;4.328;2024-02-23T12:52:56;76.82;58.55;88.59;;
57092;Laerm;42968;52.094;4.328;2024-02-23T12:55:21;74.99;57.59;88.31;;
57092;Laerm;42968;52.094;4.328;2024-02-23T12:57:47;75.82;61.72;85.72;;
57092;Laerm;42968;52.094;4.328;2024-02-23T13:00:12;75.32;62.72;82.57;;
57092;Laerm;42968;52.094;4.328;2024-02-23T13:02:38;76.01;61.28;88.60;;
57092;Laerm;42968;52.094;4.328;2024-02-23T13:05:03;75.50;63.42;82.63;;
57092;Laerm;42968;52.094;4.328;2024-02-23T13:07:28;75.88;60.70;87.81;;
57092;Laerm;42968;52.094;4.328;2024-02-23T13:09:53;75.12;56.03;83.32;;
57092;Laerm;42968;52.094;4.328;2024-02-23T13:12:19;74.91;55.12;83.72;;
57092;Laerm;42968;52.094;4.328;2024-02-23T13:14:44;87.94;59.85;108.59;;
57092;Laerm;42968;52.094;4.328;2024-02-23T13:17:09;76.30;57.86;86.47;;
57092;Laerm;42968;52.094;4.328;2024-02-23T13:19:35;75.45;58.27;83.96;;
57092;Laerm;42968;52.094;4.328;2024-02-23T13:22:00;74.12;57.21;85.41;;
57092;Laerm;42968;52.094;4.328;2024-02-23T13:24:26;75.24;64.91;87.91;;
57092;Laerm;42968;52.094;4.328;2024-02-23T13:26:51;75.52;60.45;85.81;;
57092;Laerm;42968;52.094;4.328;2024-02-23T13:29:19;76.16;55.78;83.59;;
57092;Laerm;42968;52.094;4.328;2024-02-23T13:31:45;74.92;57.79;83.75;;
57092;Laerm;42968;52.094;4.328;2024-02-23T13:34:11;88.89;62.53;112.92;;
57092;Laerm;42968;52.094;4.328;2024-02-23T13:36:37;76.29;64.95;84.64;;
57092;Laerm;42968;52.094;4.328;2024-02-23T13:39:02;74.63;57.94;85.28;;